LAKE NATOMA (NIMBUS DAM) (NAT)

Elevation: 132' · AMERICAN R basin · Operator: US Bureau of Reclamation

Provisional data, subject to change.
Query executed Tuesday at 16:46:42   clock

Select a sensor type for a plot of data.
Note: Reservoir Flows are daily averages.

Earlier

Date RES ELE    STORAGE    RES CHG    OUTFLOW    INFLOW    SPILL    DIS PWR   
 FEET   AF   AF   CFS   CFS   CFS   CFS  
07/05/2015 124.08 8301 -30 2858 2848 0 2788
07/06/2015 124.39 8456 155 2850 2932 0 2786
07/07/2015 124.40 8461 5 3076 3083 0 3029
07/08/2015 124.25 8386 -75 3081 3047 0 3041
07/09/2015 123.49 8021 -365 3061 2880 0 3021
07/10/2015 123.72 8129 108 3070 3127 0 3000
07/11/2015 123.52 8035 -94 3102 3059 0 3000
07/12/2015 123.56 8054 -- 3099 3113 0 2997
07/13/2015 123.72 8129 75 3090 3132 0 3000
07/14/2015 124.13 8326 197 3058 3158 0 3000
07/15/2015 124.16 8341 15 3036 3044 0 2996
07/16/2015 123.46 8007 -334 3049 2881 0 3009
07/17/2015 124.48 8501 494 3568 3821 0 3508
07/18/2015 124.77 8646 145 3609 3687 0 3533
07/19/2015 124.50 8511 -135 3612 3548 0 3532
07/20/2015 124.51 8516 5 3386 3395 2142 1164
07/21/2015 124.07 8296 -220 3414 3308 1533 1808
07/22/2015 123.49 8021 -275 3133 2999 0 3069
07/23/2015 123.53 8040 19 2653 2667 0 2593
07/24/2015 123.25 7909 -131 2450 2388 0 2390
07/25/2015 123.27 7918 9 2437 2446 0 2377
07/26/2015 123.36 7960 42 2434 2459 0 2374
07/27/2015 123.33 7946 -14 2440 2437 0 2380
07/28/2015 122.90 7746 -200 2439 2343 0 2379
07/29/2015 122.20 7431 -315 2431 2277 0 2364
07/30/2015 122.07 7373 -58 2432 2408 0 2362
07/31/2015 122.51 7571 198 2431 2535 0 2361
08/01/2015 123.10 7838 267 2430 2569 0 2360
08/02/2015 123.46 8007 169 2430 2519 0 2360
08/03/2015 123.92 8223 216 2431 2544 0 2361
08/04/2015 -- -- -- -- -- -- --

Later | Latest

Warning! This data is preliminary and subject to revision.

Show NAT Map | Plot NAT Data | 1 Month NAT Data | Real-Time NAT Data | NAT Info